Time;durP1;ratioP1;P1;durP2;ratioP2;P2;SDS_P1;SDS_P2;PMS_P1;PMS_P2;Temp;Humidity;BMP_temperature;BMP_pressure;BME280_temperature;BME280_humidity;BME280_pressure;Samples;Min_cycle;Max_cycle;Signal;HPM_P1;HPM_P2
2024/04/19 00:01:31;;;;;;;7.50;6.17;;;;;;;7.30;62.68;96409.22;5371087;26;20498;-70
2024/04/19 00:03:57;;;;;;;8.10;5.70;;;;;;;7.28;62.31;96411.03;5367004;26;20229;-70
2024/04/19 00:06:22;;;;;;;7.27;6.50;;;;;;;7.27;62.11;96406.69;5369441;26;20238;-70
2024/04/19 00:08:48;;;;;;;6.87;6.27;;;;;;;7.11;63.08;96406.31;5368144;26;20524;-70
2024/04/19 00:11:13;;;;;;;7.50;6.10;;;;;;;7.08;62.94;96398.56;5369852;26;20631;-69
2024/04/19 00:13:38;;;;;;;7.60;6.20;;;;;;;7.15;62.89;96402.69;5368579;26;20249;-69
2024/04/19 00:16:04;;;;;;;6.40;5.80;;;;;;;7.10;63.44;96394.16;5370320;26;20233;-69
2024/04/19 00:18:29;;;;;;;7.27;6.00;;;;;;;7.02;63.40;96387.47;5369555;26;20245;-70
2024/04/19 00:20:58;;;;;;;6.27;5.67;;;;;;;7.02;63.61;96392.69;5370230;26;20226;-70
2024/04/19 00:23:23;;;;;;;7.00;5.60;;;;;;;6.96;63.57;96388.50;5368974;26;20424;-70
2024/04/19 00:25:49;;;;;;;7.33;6.00;;;;;;;7.04;63.83;96398.69;5370519;26;20856;-70
2024/04/19 00:28:15;;;;;;;8.10;5.97;;;;;;;6.95;64.46;96392.03;5366994;26;20241;-70
2024/04/19 00:30:40;;;;;;;6.07;5.47;;;;;;;6.99;63.83;96396.22;5370221;26;20229;-70
2024/04/19 00:33:06;;;;;;;6.57;5.93;;;;;;;7.04;64.10;96396.09;5366603;26;20247;-70
2024/04/19 00:35:31;;;;;;;6.80;6.13;;;;;;;6.98;64.13;96391.91;5369927;26;20291;-70
2024/04/19 00:37:57;;;;;;;6.67;5.83;;;;;;;6.98;64.11;96394.53;5370191;26;20271;-69
2024/04/19 00:40:22;;;;;;;5.57;5.03;;;;;;;6.97;64.33;96393.69;5370114;26;20230;-70
2024/04/19 00:42:52;;;;;;;6.33;5.73;;;;;;;6.69;65.14;96398.84;5370014;26;20300;-70
2024/04/19 00:45:29;;;;;;;7.60;5.63;;;;;;;6.72;64.89;96390.94;5366742;26;20233;-70
2024/04/19 00:47:56;;;;;;;7.30;5.33;;;;;;;6.68;65.00;96389.28;5362975;26;20459;-70
2024/04/19 00:50:23;;;;;;;6.90;6.17;;;;;;;6.67;64.93;96386.75;5366013;26;20468;-70
2024/04/19 00:52:49;;;;;;;6.50;5.80;;;;;;;6.70;64.96;96384.03;5372644;26;20472;-70
2024/04/19 00:55:16;;;;;;;11.33;6.30;;;;;;;6.69;65.07;96385.81;5375306;26;20556;-70
2024/04/19 00:57:42;;;;;;;6.53;5.60;;;;;;;6.69;65.09;96387.56;5387881;26;20321;-70
2024/04/19 01:00:09;;;;;;;6.53;5.87;;;;;;;6.67;64.99;96394.56;5382093;26;20588;-70
2024/04/19 01:02:35;;;;;;;7.23;6.53;;;;;;;6.67;65.39;96392.81;5381678;26;21210;-70
2024/04/19 01:05:01;;;;;;;9.20;6.17;;;;;;;6.63;65.20;96385.97;5395179;26;20506;-70
2024/04/19 01:07:27;;;;;;;6.87;5.70;;;;;;;6.67;65.14;96386.75;5382080;26;20465;-70
2024/04/19 01:09:52;;;;;;;6.07;5.47;;;;;;;6.65;65.25;96384.19;5362616;26;20493;-70
2024/04/19 01:12:19;;;;;;;7.10;6.40;;;;;;;6.63;65.75;96390.34;5369029;26;20233;-70
2024/04/19 01:14:45;;;;;;;6.70;6.10;;;;;;;6.69;65.12;96383.19;5368581;26;20237;-69
2024/04/19 01:17:11;;;;;;;8.37;6.70;;;;;;;6.61;65.59;96385.16;5369866;26;21077;-70
2024/04/19 01:19:36;;;;;;;7.10;6.50;;;;;;;6.68;65.55;96383.22;5370991;26;20516;-69
2024/04/19 01:22:02;;;;;;;8.23;6.33;;;;;;;6.65;65.26;96378.97;5368554;26;20312;-70
2024/04/19 01:24:38;;;;;;;6.90;6.30;;;;;;;6.52;66.09;96377.59;5368315;26;20455;-70
2024/04/19 01:27:04;;;;;;;7.77;6.20;;;;;;;6.67;65.38;96384.16;5369804;26;20672;-70
2024/04/19 01:29:29;;;;;;;7.73;6.07;;;;;;;6.53;65.91;96388.00;5369290;26;20472;-71
2024/04/19 01:31:55;;;;;;;7.10;6.40;;;;;;;6.64;65.76;96386.81;5368638;26;20233;-70
2024/04/19 01:34:20;;;;;;;7.37;6.10;;;;;;;6.67;65.54;96384.16;5371550;26;20234;-69
2024/04/19 01:36:46;;;;;;;6.90;6.30;;;;;;;6.42;66.29;96381.38;5385614;26;20281;-72
2024/04/19 01:39:11;;;;;;;6.67;5.83;;;;;;;6.55;65.95;96380.97;5375751;26;20234;-70
2024/04/19 01:41:37;;;;;;;7.03;6.33;;;;;;;6.50;66.27;96387.25;5373613;26;20233;-70
2024/04/19 01:44:03;;;;;;;9.00;6.97;;;;;;;6.53;66.13;96382.78;5377602;26;20264;-70
2024/04/19 01:46:28;;;;;;;8.00;6.93;;;;;;;6.56;65.97;96376.63;5368710;26;20459;-69
2024/04/19 01:48:54;;;;;;;6.53;5.77;;;;;;;6.50;65.91;96374.19;5369034;26;20245;-70
2024/04/19 01:51:19;;;;;;;7.80;6.77;;;;;;;6.39;66.23;96371.88;5366515;26;20284;-70
2024/04/19 01:53:44;;;;;;;7.37;6.67;;;;;;;6.35;66.17;96365.91;5367301;26;20226;-70
2024/04/19 01:56:10;;;;;;;7.70;6.20;;;;;;;6.20;66.73;96368.94;5368351;26;20272;-70
2024/04/19 01:58:35;;;;;;;6.83;6.23;;;;;;;6.15;67.06;96370.81;5368875;26;20999;-69
2024/04/19 02:01:01;;;;;;;7.67;6.27;;;;;;;6.06;67.34;96358.88;5367521;26;20250;-70
2024/04/19 02:03:26;;;;;;;7.27;6.60;;;;;;;6.15;66.77;96358.63;5370120;26;20287;-70
2024/04/19 02:05:51;;;;;;;7.60;6.10;;;;;;;6.18;67.00;96359.44;5370545;26;20284;-70
2024/04/19 02:08:17;;;;;;;7.23;6.53;;;;;;;6.23;66.41;96358.41;5371255;26;20251;-70
2024/04/19 02:10:42;;;;;;;6.73;6.10;;;;;;;6.22;66.59;96354.09;5362131;26;20857;-70
2024/04/19 02:13:08;;;;;;;7.03;6.30;;;;;;;6.12;67.29;96352.66;5376037;26;20233;-69
2024/04/19 02:15:33;;;;;;;6.60;5.90;;;;;;;6.09;67.21;96347.50;5370688;26;20276;-70
2024/04/19 02:17:58;;;;;;;8.30;6.90;;;;;;;6.14;66.58;96340.41;5372718;26;20279;-70
2024/04/19 02:20:24;;;;;;;7.77;6.87;;;;;;;6.03;67.21;96345.09;5361510;26;20250;-69
2024/04/19 02:22:49;;;;;;;11.10;7.90;;;;;;;5.90;67.64;96337.53;5370563;26;20708;-69
2024/04/19 02:25:14;;;;;;;7.73;6.87;;;;;;;5.98;67.42;96334.78;5367972;26;20293;-70
2024/04/19 02:33:08;;;;;;;10.13;8.67;;;;;;;5.98;66.94;96324.38;5357358;26;20516;-70
2024/04/19 02:35:33;;;;;;;7.90;7.10;;;;;;;5.89;67.56;96322.81;5365928;26;20521;-70
2024/04/19 02:37:59;;;;;;;8.00;7.03;;;;;;;6.03;66.67;96317.28;5350156;26;20696;-70
2024/04/19 02:40:24;;;;;;;7.97;7.10;;;;;;;5.97;66.87;96317.44;5373124;26;20360;-71
2024/04/19 02:42:49;;;;;;;13.03;6.93;;;;;;;5.73;67.76;96317.16;5371779;26;20359;-70
2024/04/19 02:45:15;;;;;;;11.73;8.27;;;;;;;5.81;67.58;96310.91;5372412;26;20377;-70
2024/04/19 02:47:40;;;;;;;9.07;7.60;;;;;;;6.04;66.77;96303.34;5372013;26;20280;-69
2024/04/19 02:50:06;;;;;;;10.33;7.80;;;;;;;5.96;67.23;96307.09;5373945;26;20233;-69
2024/04/19 02:52:31;;;;;;;11.30;7.80;;;;;;;5.99;67.15;96301.78;5372717;26;20233;-70
2024/04/19 02:54:57;;;;;;;9.50;8.47;;;;;;;5.97;66.86;96295.75;5373680;26;20297;-71
2024/04/19 02:57:22;;;;;;;9.83;7.90;;;;;;;5.87;67.30;96289.91;5363214;26;20241;-70
2024/04/19 02:59:48;;;;;;;9.03;7.60;;;;;;;5.92;67.21;96286.28;5372926;26;20300;-70
2024/04/19 03:02:13;;;;;;;7.97;6.80;;;;;;;6.01;67.17;96285.22;5377112;26;20229;-70
2024/04/19 03:04:39;;;;;;;8.20;7.40;;;;;;;6.00;66.98;96283.50;5377241;26;20543;-71
2024/04/19 03:07:04;;;;;;;9.70;8.40;;;;;;;6.03;66.97;96285.19;5378050;26;20284;-70
2024/04/19 03:09:30;;;;;;;8.30;7.33;;;;;;;6.08;66.87;96289.34;5374442;26;20237;-70
2024/04/19 03:11:56;;;;;;;8.13;7.33;;;;;;;6.09;66.57;96280.63;5368310;26;20268;-71
2024/04/19 03:14:21;;;;;;;11.47;9.23;;;;;;;6.05;66.78;96280.78;5370088;26;20239;-70
2024/04/19 03:16:48;;;;;;;13.40;7.57;;;;;;;5.85;68.02;96286.50;5370212;26;20226;-70
2024/04/19 03:19:13;;;;;;;10.30;8.43;;;;;;;6.03;67.26;96282.56;5371197;26;20377;-70
2024/04/19 03:21:39;;;;;;;13.60;8.47;;;;;;;5.87;67.82;96285.56;5370692;26;20467;-70
2024/04/19 03:24:04;;;;;;;10.17;8.10;;;;;;;5.82;67.73;96277.00;5368965;26;20234;-70
2024/04/19 03:26:30;;;;;;;9.47;8.50;;;;;;;5.81;67.70;96274.44;5356828;26;20288;-70
2024/04/19 03:28:55;;;;;;;11.30;9.50;;;;;;;5.81;67.64;96274.44;5369565;26;20241;-70
2024/04/19 03:31:21;;;;;;;9.27;8.20;;;;;;;5.86;67.21;96268.22;5360555;26;20238;-70
2024/04/19 03:33:46;;;;;;;8.93;7.77;;;;;;;5.98;66.71;96267.06;5370311;26;20226;-70
2024/04/19 03:36:11;;;;;;;13.03;8.73;;;;;;;5.83;67.49;96265.69;5369468;26;20237;-70
2024/04/19 03:38:37;;;;;;;9.20;8.23;;;;;;;6.07;66.71;96259.00;5369011;26;20755;-71
2024/04/19 03:41:02;;;;;;;10.00;7.80;;;;;;;5.94;66.75;96260.22;5370475;26;20297;-69
2024/04/19 03:43:40;;;;;;;10.60;8.97;;;;;;;5.87;67.29;96262.13;5369070;26;21096;-70
2024/04/19 03:46:05;;;;;;;12.23;9.53;;;;;;;5.80;67.68;96257.13;5369384;26;20237;-69
2024/04/19 03:48:31;;;;;;;12.07;8.77;;;;;;;5.72;68.01;96254.72;5370696;26;21141;-69
2024/04/19 03:50:56;;;;;;;9.70;8.10;;;;;;;5.78;68.08;96256.31;5370433;26;20297;-69
2024/04/19 03:53:22;;;;;;;15.67;9.47;;;;;;;5.75;67.92;96248.59;5352565;26;20278;-69
2024/04/19 03:55:47;;;;;;;12.20;9.70;;;;;;;5.84;67.50;96248.34;5359824;26;20766;-69
2024/04/19 03:58:13;;;;;;;11.97;9.40;;;;;;;5.93;67.42;96248.09;5370652;26;20230;-69
2024/04/19 04:00:39;;;;;;;16.50;9.33;;;;;;;5.89;67.33;96246.44;5369670;26;20272;-69
2024/04/19 04:03:04;;;;;;;11.80;8.10;;;;;;;5.81;67.84;96245.78;5356590;26;20233;-69
2024/04/19 04:05:30;;;;;;;12.50;10.07;;;;;;;5.83;67.72;96242.25;5365097;26;20234;-69
2024/04/19 04:07:55;;;;;;;14.73;8.70;;;;;;;5.73;67.95;96238.22;5367576;26;20292;-69
2024/04/19 04:10:21;;;;;;;20.90;9.97;;;;;;;5.88;67.64;96231.72;5370069;26;20356;-70
2024/04/19 04:12:46;;;;;;;21.97;11.53;;;;;;;5.88;68.00;96226.50;5369834;26;20973;-70
2024/04/19 04:15:11;;;;;;;11.77;9.70;;;;;;;5.88;67.72;96235.19;5355793;26;20351;-69
2024/04/19 04:17:37;;;;;;;12.60;9.77;;;;;;;5.78;67.77;96232.88;5364421;26;20233;-69
2024/04/19 04:20:03;;;;;;;9.93;8.70;;;;;;;5.78;67.65;96233.72;5369809;26;20230;-70
2024/04/19 04:22:29;;;;;;;13.53;9.70;;;;;;;5.68;67.94;96237.47;5364972;26;20956;-70
2024/04/19 04:24:54;;;;;;;10.50;8.37;;;;;;;5.91;67.56;96239.47;5345808;26;20463;-70
2024/04/19 04:27:19;;;;;;;12.00;9.20;;;;;;;5.80;67.75;96233.69;5369536;26;20371;-70
2024/04/19 04:29:45;;;;;;;11.77;9.97;;;;;;;5.77;67.90;96236.38;5369302;26;20238;-70
2024/04/19 04:32:11;;;;;;;10.33;8.30;;;;;;;5.63;68.61;96237.59;5369911;26;20351;-70
2024/04/19 04:34:36;;;;;;;9.77;8.77;;;;;;;5.69;68.20;96234.84;5370268;26;20271;-70
2024/04/19 04:37:01;;;;;;;10.40;9.30;;;;;;;5.83;67.69;96233.59;5370048;26;20241;-69
2024/04/19 04:39:27;;;;;;;10.90;9.23;;;;;;;5.75;68.25;96240.78;5366277;26;20276;-70
2024/04/19 04:41:52;;;;;;;14.27;9.47;;;;;;;5.82;67.91;96231.91;5369731;26;20685;-70
2024/04/19 04:44:18;;;;;;;18.53;10.20;;;;;;;5.84;67.69;96232.72;5370005;26;21041;-70
2024/04/19 04:46:43;;;;;;;23.50;10.20;;;;;;;5.88;67.87;96229.09;5370020;26;20226;-71
2024/04/19 04:49:12;;;;;;;13.40;9.90;;;;;;;5.91;67.81;96231.66;5368512;26;20300;-71
2024/04/19 04:51:37;;;;;;;23.23;11.53;;;;;;;5.86;67.37;96229.16;5356451;26;20277;-70
2024/04/19 04:54:03;;;;;;;20.77;9.00;;;;;;;5.86;67.81;96236.13;5369147;26;21085;-70
2024/04/19 04:56:28;;;;;;;14.50;9.30;;;;;;;5.94;67.23;96236.78;5369489;26;20238;-70
2024/04/19 04:58:54;;;;;;;11.73;9.70;;;;;;;5.84;67.89;96237.94;5369100;26;20241;-70
2024/04/19 05:01:19;;;;;;;13.10;9.90;;;;;;;5.81;68.11;96232.78;5366478;26;20275;-70
2024/04/19 05:03:48;;;;;;;13.70;10.60;;;;;;;5.71;68.04;96225.22;5366740;26;20276;-68
2024/04/19 05:06:14;;;;;;;14.37;9.57;;;;;;;5.83;67.98;96231.00;5366740;26;20233;-70
2024/04/19 05:08:40;;;;;;;11.43;9.57;;;;;;;5.91;67.88;96221.22;5345710;26;20579;-70
2024/04/19 05:11:06;;;;;;;12.10;9.20;;;;;;;5.87;68.31;96217.00;5364077;26;20459;-70
2024/04/19 05:13:31;;;;;;;13.77;9.47;;;;;;;5.92;68.01;96220.31;5368944;26;20758;-71
2024/04/19 05:15:56;;;;;;;11.70;9.13;;;;;;;5.91;68.04;96214.25;5367565;26;20233;-71
2024/04/19 05:18:22;;;;;;;19.37;9.73;;;;;;;6.17;66.77;96217.06;5369224;26;20635;-70
2024/04/19 05:20:47;;;;;;;13.50;9.57;;;;;;;6.06;67.31;96223.41;5368043;26;20242;-69
2024/04/19 05:23:13;;;;;;;13.83;9.93;;;;;;;6.18;66.81;96218.75;5371104;26;20963;-70
2024/04/19 05:25:39;;;;;;;19.50;9.50;;;;;;;6.04;67.42;96227.81;5371468;26;20238;-70
2024/04/19 05:28:05;;;;;;;12.67;8.60;;;;;;;6.08;67.12;96218.16;5370696;26;20904;-70
2024/04/19 05:30:30;;;;;;;18.27;10.83;;;;;;;6.04;67.72;96216.53;5369063;26;20264;-72
2024/04/19 05:32:57;;;;;;;29.53;10.60;;;;;;;6.14;67.49;96224.06;5355051;26;20465;-71
2024/04/19 05:35:22;;;;;;;13.90;9.87;;;;;;;6.00;67.36;96218.41;5338022;26;20250;-71
2024/04/19 05:37:48;;;;;;;21.33;9.83;;;;;;;6.03;67.36;96212.25;5361181;26;21204;-72
2024/04/19 05:40:13;;;;;;;15.50;9.33;;;;;;;6.48;66.98;96220.44;5372504;26;20326;-72
2024/04/19 05:42:39;;;;;;;11.43;9.70;;;;;;;6.25;66.87;96217.66;5363116;26;20234;-70
2024/04/19 05:45:04;;;;;;;13.27;10.00;;;;;;;6.22;67.26;96202.13;5382951;26;20230;-70
2024/04/19 05:47:30;;;;;;;16.47;11.43;;;;;;;6.00;67.82;96204.50;5383520;26;20316;-71
2024/04/19 05:49:55;;;;;;;12.97;9.60;;;;;;;6.12;67.25;96191.13;5389387;26;21149;-68
2024/04/19 05:52:20;;;;;;;14.80;9.10;;;;;;;6.06;67.79;96192.16;5390904;26;20232;-69
2024/04/19 05:54:46;;;;;;;14.73;10.20;;;;;;;6.19;67.70;96192.66;5388079;26;20288;-70
2024/04/19 05:57:11;;;;;;;17.70;9.70;;;;;;;6.32;67.33;96193.13;5392365;26;20759;-70
2024/04/19 05:59:37;;;;;;;13.93;9.17;;;;;;;6.42;66.86;96191.94;5388812;26;20243;-70
2024/04/19 06:02:02;;;;;;;11.80;8.73;;;;;;;6.19;67.25;96192.66;5378326;26;20256;-69
2024/04/19 06:04:28;;;;;;;17.07;10.10;;;;;;;6.18;67.94;96198.75;5385474;26;20262;-70
2024/04/19 06:06:53;;;;;;;14.00;8.73;;;;;;;6.22;67.59;96197.78;5378171;26;20256;-69
2024/04/19 06:09:19;;;;;;;15.20;10.73;;;;;;;6.29;67.83;96188.88;5365310;26;20609;-68
2024/04/19 06:11:44;;;;;;;12.63;9.47;;;;;;;6.47;67.19;96194.41;5380449;26;20245;-67
2024/04/19 06:14:10;;;;;;;12.83;10.57;;;;;;;6.38;67.35;96186.88;5379967;26;20257;-68
2024/04/19 06:16:35;;;;;;;13.03;9.57;;;;;;;6.42;66.87;96181.50;5380265;26;20241;-68
2024/04/19 06:19:00;;;;;;;15.10;10.80;;;;;;;6.49;67.37;96185.63;5387297;26;20292;-68
2024/04/19 06:21:27;;;;;;;12.07;10.20;;;;;;;6.53;67.24;96187.25;5376794;26;20226;-68
2024/04/19 06:23:52;;;;;;;18.03;11.30;;;;;;;6.62;66.89;96173.06;5372176;26;20233;-67
2024/04/19 06:26:17;;;;;;;14.33;10.33;;;;;;;6.42;68.01;96178.91;5371565;26;20471;-66
2024/04/19 06:28:43;;;;;;;14.17;9.50;;;;;;;6.65;66.71;96175.56;5371855;26;20407;-67
2024/04/19 06:31:09;;;;;;;17.37;11.63;;;;;;;6.61;67.25;96165.28;5372700;26;20245;-69
2024/04/19 06:33:35;;;;;;;15.37;11.00;;;;;;;6.67;67.02;96162.50;5372010;26;20229;-67
2024/04/19 06:36:00;;;;;;;20.33;9.83;;;;;;;6.68;66.83;96166.81;5372676;26;20859;-67
2024/04/19 06:38:26;;;;;;;26.83;13.23;;;;;;;6.64;67.69;96165.19;5371914;26;20238;-68
2024/04/19 06:40:51;;;;;;;13.83;10.50;;;;;;;6.66;66.66;96159.03;5371879;26;20344;-68
2024/04/19 06:43:17;;;;;;;16.37;9.70;;;;;;;6.72;67.19;96163.19;5370725;26;20237;-68
2024/04/19 06:45:42;;;;;;;13.60;10.10;;;;;;;6.67;67.20;96162.50;5372957;26;20302;-66
2024/04/19 06:48:08;;;;;;;13.57;9.47;;;;;;;6.76;66.68;96159.59;5376697;26;20272;-67
2024/04/19 06:50:33;;;;;;;13.00;9.50;;;;;;;6.73;66.56;96155.34;5377980;26;20241;-68
2024/04/19 06:52:59;;;;;;;15.80;11.37;;;;;;;6.74;67.23;96153.56;5377693;26;20249;-67
2024/04/19 06:55:24;;;;;;;14.03;10.47;;;;;;;6.95;66.00;96146.81;5376716;26;20238;-68
2024/04/19 06:57:50;;;;;;;13.23;10.50;;;;;;;6.93;65.97;96144.22;5372968;26;20225;-68
2024/04/19 07:00:15;;;;;;;15.70;10.90;;;;;;;7.04;66.24;96143.88;5373607;26;21326;-68
2024/04/19 07:02:41;;;;;;;13.87;10.80;;;;;;;7.21;65.16;96140.69;5371966;26;20230;-68
2024/04/19 07:05:06;;;;;;;13.93;10.50;;;;;;;7.07;65.73;96132.50;5371606;26;20367;-68
2024/04/19 07:07:32;;;;;;;12.67;10.40;;;;;;;6.92;65.42;96134.72;5371469;26;20624;-68
2024/04/19 07:09:57;;;;;;;16.73;11.90;;;;;;;6.95;65.36;96132.00;5371081;26;20748;-68
2024/04/19 07:12:22;;;;;;;14.40;10.30;;;;;;;7.19;64.53;96124.22;5371172;26;20372;-67
2024/04/19 07:14:49;;;;;;;19.63;11.07;;;;;;;7.25;64.15;96128.38;5367325;26;20248;-67
2024/04/19 07:17:14;;;;;;;11.70;10.23;;;;;;;7.26;64.18;96123.09;5368165;26;20359;-67
2024/04/19 07:19:40;;;;;;;15.50;10.03;;;;;;;7.27;63.87;96126.56;5372782;26;20464;-69
2024/04/19 07:22:05;;;;;;;13.50;11.03;;;;;;;7.28;63.18;96123.91;5372325;26;20272;-67
2024/04/19 07:24:30;;;;;;;21.43;10.17;;;;;;;7.23;63.51;96115.41;5371241;26;20229;-68
2024/04/19 07:26:56;;;;;;;12.47;9.97;;;;;;;7.23;63.85;96115.41;5370034;26;20782;-68
2024/04/19 07:29:22;;;;;;;14.30;9.63;;;;;;;7.39;62.79;96105.22;5372547;26;20332;-67
2024/04/19 07:31:47;;;;;;;13.80;10.23;;;;;;;7.36;63.56;96102.75;5372274;26;20273;-66
2024/04/19 07:34:13;;;;;;;15.70;9.47;;;;;;;7.44;63.19;96092.88;5371255;26;20276;-68
2024/04/19 07:36:38;;;;;;;17.53;11.40;;;;;;;7.63;62.45;96093.91;5370954;26;20237;-68
2024/04/19 07:39:04;;;;;;;21.00;10.07;;;;;;;7.58;63.04;96092.34;5369962;26;20280;-68
2024/04/19 07:41:29;;;;;;;13.20;9.83;;;;;;;7.54;63.18;96093.41;5370996;26;20268;-68
2024/04/19 07:43:54;;;;;;;11.77;8.67;;;;;;;7.64;62.49;96084.31;5369573;26;20233;-67
2024/04/19 07:46:20;;;;;;;13.47;9.33;;;;;;;7.66;62.16;96087.72;5370875;26;20330;-67
2024/04/19 07:48:45;;;;;;;11.20;8.93;;;;;;;7.70;62.23;96088.44;5372097;26;20787;-67
2024/04/19 07:51:11;;;;;;;12.23;9.53;;;;;;;7.87;60.93;96078.22;5370721;26;20284;-67
2024/04/19 07:53:36;;;;;;;13.80;9.20;;;;;;;8.17;60.28;96077.91;5355698;26;20848;-67
2024/04/19 07:56:02;;;;;;;14.90;11.13;;;;;;;8.04;59.98;96073.19;5372648;26;20268;-67
2024/04/19 07:58:27;;;;;;;13.97;9.97;;;;;;;8.16;60.15;96064.00;5370055;26;20268;-68
2024/04/19 08:00:53;;;;;;;12.10;9.53;;;;;;;8.47;59.19;96054.97;5370775;26;20674;-68
2024/04/19 08:03:19;;;;;;;13.83;9.00;;;;;;;8.74;57.55;96052.09;5371002;26;20576;-66
2024/04/19 08:05:45;;;;;;;13.53;8.77;;;;;;;8.58;57.51;96052.75;5375439;26;20475;-67
2024/04/19 08:08:10;;;;;;;18.00;8.07;;;;;;;8.61;57.55;96055.25;5382985;26;20225;-68
2024/04/19 08:10:35;;;;;;;12.27;8.67;;;;;;;8.66;57.71;96048.03;5385592;26;20222;-68
2024/04/19 08:13:01;;;;;;;12.80;9.23;;;;;;;8.61;57.53;96049.16;5380936;26;20276;-68
2024/04/19 08:15:26;;;;;;;8.77;7.37;;;;;;;8.52;57.14;96033.84;5346387;26;20238;-66
2024/04/19 08:17:52;;;;;;;11.20;8.07;;;;;;;8.50;56.62;96038.28;5370160;26;20669;-68
2024/04/19 08:20:17;;;;;;;11.47;8.27;;;;;;;8.58;57.25;96041.44;5378810;26;20721;-68
2024/04/19 08:22:43;;;;;;;10.37;8.17;;;;;;;8.53;56.92;96033.78;5383119;26;20276;-68
2024/04/19 08:25:08;;;;;;;16.80;8.77;;;;;;;8.55;57.34;96024.13;5359217;26;20217;-67
2024/04/19 08:27:34;;;;;;;12.17;8.30;;;;;;;8.62;57.03;96022.94;5368656;26;20761;-66
2024/04/19 08:30:00;;;;;;;13.07;7.47;;;;;;;8.31;56.81;96018.09;5371595;26;20237;-68
2024/04/19 08:32:25;;;;;;;10.40;7.93;;;;;;;8.36;56.54;96013.56;5371859;26;20504;-67
2024/04/19 08:34:54;;;;;;;8.57;7.23;;;;;;;8.24;56.17;96014.03;5369985;26;20246;-68
2024/04/19 08:37:20;;;;;;;8.23;6.80;;;;;;;8.32;56.87;96018.97;5369551;26;20234;-67
2024/04/19 08:39:45;;;;;;;9.47;7.90;;;;;;;8.23;57.35;96007.13;5370534;26;20512;-68
2024/04/19 08:42:14;;;;;;;10.87;7.50;;;;;;;8.26;57.67;95999.97;5368355;26;20546;-68
2024/04/19 08:44:44;;;;;;;8.17;6.40;;;;;;;8.42;56.85;96005.47;5363065;26;20272;-67
2024/04/19 08:47:14;;;;;;;11.17;7.80;;;;;;;8.35;56.94;95995.31;5350735;26;20865;-68
2024/04/19 08:49:40;;;;;;;10.23;7.20;;;;;;;8.35;56.66;95987.47;5358188;26;20452;-68
2024/04/19 08:52:08;;;;;;;11.80;7.93;;;;;;;8.35;57.38;95982.22;5370691;26;20459;-68
2024/04/19 08:54:34;;;;;;;10.30;7.13;;;;;;;8.42;57.85;95973.25;5355540;26;20609;-68
2024/04/19 08:57:00;;;;;;;8.20;7.30;;;;;;;8.28;58.95;95977.25;5370347;26;20503;-68
2024/04/19 08:59:30;;;;;;;12.63;8.63;;;;;;;8.41;58.66;95984.59;5370845;26;20512;-67
2024/04/19 09:01:55;;;;;;;9.63;6.60;;;;;;;8.47;57.80;95976.50;5368285;26;20487;-68
2024/04/19 09:04:20;;;;;;;13.10;6.80;;;;;;;8.40;58.62;95967.22;5369497;26;20514;-68
2024/04/19 09:06:46;;;;;;;9.77;6.63;;;;;;;8.56;58.50;95976.13;5363615;26;20868;-68
2024/04/19 09:09:12;;;;;;;8.07;7.00;;;;;;;8.46;58.58;95974.81;5369441;26;20305;-67
2024/04/19 09:11:40;;;;;;;10.80;7.17;;;;;;;8.45;60.32;95970.50;5369093;26;20276;-66
2024/04/19 09:14:05;;;;;;;8.70;6.20;;;;;;;8.34;59.21;95980.50;5368259;26;20233;-68
2024/04/19 09:16:32;;;;;;;8.27;6.53;;;;;;;8.12;60.29;95975.34;5369113;26;20516;-67
2024/04/19 09:18:57;;;;;;;9.80;6.60;;;;;;;8.21;60.50;95957.50;5370481;26;21081;-68
2024/04/19 09:21:26;;;;;;;7.57;6.10;;;;;;;8.11;61.68;95957.97;5370375;26;20607;-68
2024/04/19 09:23:51;;;;;;;7.90;7.10;;;;;;;8.23;60.57;95944.38;5369339;26;20347;-68
2024/04/19 09:26:18;;;;;;;8.80;6.90;;;;;;;8.18;61.27;95955.03;5369780;26;20487;-67
2024/04/19 09:28:43;;;;;;;11.93;7.40;;;;;;;8.22;61.91;95940.91;5370783;26;20234;-67
2024/04/19 09:31:09;;;;;;;10.13;6.90;;;;;;;8.07;62.59;95941.53;5355075;26;20526;-68
2024/04/19 09:33:35;;;;;;;9.13;6.90;;;;;;;8.04;62.93;95939.06;5368696;26;20237;-67
2024/04/19 09:36:00;;;;;;;7.37;6.20;;;;;;;7.96;64.55;95917.63;5369539;26;20229;-68
2024/04/19 09:38:27;;;;;;;9.17;7.00;;;;;;;8.11;62.84;95919.59;5366077;26;21401;-68
2024/04/19 09:40:53;;;;;;;8.87;7.00;;;;;;;8.15;62.56;95929.03;5358393;26;20327;-68
2024/04/19 09:43:20;;;;;;;7.77;6.53;;;;;;;8.12;62.95;95912.59;5349808;26;20480;-68
2024/04/19 09:45:48;;;;;;;8.20;6.97;;;;;;;8.19;61.79;95912.28;5334822;26;20238;-67
2024/04/19 09:48:19;;;;;;;7.40;6.60;;;;;;;8.25;61.21;95908.56;5366774;26;20463;-68
2024/04/19 09:50:46;;;;;;;12.43;7.07;;;;;;;8.25;62.55;95896.34;5347306;26;20469;-68
2024/04/19 09:53:17;;;;;;;15.93;7.47;;;;;;;8.24;63.87;95899.88;5334395;26;20591;-67
2024/04/19 09:56:10;;;;;;;11.23;5.40;;;;;;;8.14;63.54;95890.72;5344763;26;20546;-68
2024/04/19 09:58:37;;;;;;;6.77;5.57;;;;;;;7.90;64.19;95887.38;5348416;26;20820;-68
2024/04/19 10:01:03;;;;;;;8.50;5.83;;;;;;;8.12;63.27;95887.31;5359701;26;20589;-68
2024/04/19 10:03:29;;;;;;;6.10;5.50;;;;;;;8.06;63.43;95877.16;5368267;26;20990;-68
2024/04/19 10:05:55;;;;;;;6.50;5.17;;;;;;;7.98;64.73;95874.00;5366501;26;20326;-66
2024/04/19 10:08:27;;;;;;;9.07;6.60;;;;;;;8.04;65.46;95869.34;5368935;26;20236;-67
2024/04/19 10:10:54;;;;;;;6.60;5.90;;;;;;;7.94;65.36;95873.28;5356275;26;20465;-68
2024/04/19 10:13:19;;;;;;;8.13;6.27;;;;;;;8.01;65.14;95873.88;5345564;26;20579;-68
2024/04/19 10:15:48;;;;;;;8.80;6.10;;;;;;;7.98;64.73;95863.53;5365304;26;20487;-68
2024/04/19 10:18:13;;;;;;;10.17;6.87;;;;;;;8.01;64.46;95858.19;5369424;26;20288;-69
2024/04/19 10:20:40;;;;;;;7.03;5.70;;;;;;;7.91;64.64;95869.94;5369165;26;20463;-68
2024/04/19 10:23:06;;;;;;;9.30;6.00;;;;;;;8.02;64.78;95859.88;5369414;26;20232;-66
2024/04/19 10:25:38;;;;;;;7.87;5.40;;;;;;;8.02;65.71;95860.72;5387694;26;20936;-68
2024/04/19 10:28:07;;;;;;;6.23;5.50;;;;;;;8.08;65.39;95849.19;5396213;26;20330;-68
2024/04/19 10:30:32;;;;;;;7.03;5.43;;;;;;;8.09;65.34;95844.81;5407181;26;20475;-68
2024/04/19 10:32:59;;;;;;;8.73;6.40;;;;;;;8.03;64.68;95840.66;5393731;26;20937;-69
2024/04/19 10:35:24;;;;;;;9.83;5.30;;;;;;;7.97;64.63;95831.34;5403465;26;20310;-68
2024/04/19 10:37:50;;;;;;;10.20;6.63;;;;;;;8.07;64.04;95816.13;5389477;26;20481;-67
2024/04/19 10:40:16;;;;;;;15.60;6.77;;;;;;;8.00;64.54;95823.38;5390764;26;21108;-68
2024/04/19 10:42:42;;;;;;;11.10;6.87;;;;;;;8.05;66.60;95815.31;5395902;26;20461;-68
2024/04/19 10:45:14;;;;;;;7.17;6.10;;;;;;;8.11;65.05;95809.00;5387812;26;20237;-69
2024/04/19 10:47:40;;;;;;;9.37;6.37;;;;;;;8.04;65.73;95795.34;5388686;26;20279;-68
2024/04/19 10:50:06;;;;;;;8.07;6.13;;;;;;;8.15;64.11;95800.09;5375687;26;20466;-67
2024/04/19 10:52:35;;;;;;;8.33;6.33;;;;;;;8.13;63.87;95788.88;5389755;26;20613;-67
2024/04/19 10:55:00;;;;;;;7.17;6.23;;;;;;;8.00;66.11;95783.31;5383466;26;20293;-67
2024/04/19 10:57:30;;;;;;;7.13;6.30;;;;;;;8.11;63.98;95775.03;5393754;26;21389;-67
2024/04/19 10:59:55;;;;;;;8.33;6.27;;;;;;;7.99;63.75;95779.03;5385116;26;20731;-67
2024/04/19 11:02:22;;;;;;;7.80;6.37;;;;;;;7.97;63.61;95779.09;5388662;26;20526;-69
2024/04/19 11:04:48;;;;;;;6.90;5.70;;;;;;;7.83;63.96;95765.78;5384575;26;20996;-67
2024/04/19 11:07:14;;;;;;;6.93;6.30;;;;;;;7.61;65.73;95763.25;5384487;26;20561;-67
2024/04/19 11:09:42;;;;;;;6.90;6.00;;;;;;;7.56;66.32;95755.59;5387938;26;20278;-67
2024/04/19 11:12:09;;;;;;;12.10;7.30;;;;;;;7.53;67.25;95762.69;5386173;26;20233;-67
2024/04/19 11:14:35;;;;;;;8.63;6.73;;;;;;;7.58;66.73;95756.38;5383507;26;20520;-67
2024/04/19 11:17:03;;;;;;;8.20;6.90;;;;;;;7.61;66.06;95756.25;5378010;26;20536;-67
2024/04/19 11:19:30;;;;;;;6.83;6.13;;;;;;;7.66;66.00;95748.22;5384259;26;20515;-67
2024/04/19 11:21:58;;;;;;;7.53;6.77;;;;;;;7.63;65.98;95728.31;5381642;26;20460;-68
2024/04/19 11:24:24;;;;;;;7.37;6.23;;;;;;;7.39;66.58;95732.81;5398640;26;20451;-67
2024/04/19 11:26:53;;;;;;;8.33;6.80;;;;;;;7.32;68.89;95736.59;5400151;26;20463;-67
2024/04/19 11:29:20;;;;;;;8.03;5.50;;;;;;;7.42;67.51;95732.69;5389705;26;20455;-68
2024/04/19 11:31:49;;;;;;;6.37;5.70;;;;;;;7.53;67.74;95721.78;5390180;26;20527;-68
2024/04/19 11:34:14;;;;;;;6.97;5.70;;;;;;;7.54;67.70;95720.88;5392258;26;20460;-68
2024/04/19 11:36:44;;;;;;;6.53;5.07;;;;;;;7.48;67.51;95720.28;5392881;26;20590;-68